Terminal Aerodrome Forecast
Issued by NWS

Home | Current Version | Previous Version | Text Only | Print | Product List | Glossary On
Versions: 1 2 3 4 5 6 7 8 9 10 11 12 13 14 15 16 17 18 19 20 21 22 23 24
000
FTUS41 KPHI 241400 AAA
TAFPNE
TAF AMD
KPNE 241411Z 2414/2512 34015G25KT P6SM BKN040
      TEMPO 2414/2416 SCT040
     FM241900 32012G24KT P6SM BKN050
     FM242300 30008KT P6SM SCT200=

USA.gov is the U.S. government's official web portal to all federal, state and local government web resources and services.